Plains, GA (31780)

10:28 AM EST on March 06, 2015 (GMT -0500)
Wildwood Circle | Change Station
CLOSE
Current Station
Personal Weather Station
Location: Americus, GA
Elevation: 402 ft
Nearby Weather Stations

Elev 402 ft 32.06 °N, 84.21 °W | Updated 13 minutes ago

Overcast
Overcast
36.9 °F
Feels Like 37 °F
N
0.8
Wind Variable Wind from North
Gusts 3.1 mph

Today
High -- | Low -- °F
--% Chance of Precip.
Yesterday
High -- | Low -- °F
Precip. -- in
6:59 AM 6:38 PM
Full, 99% visible
Pressure 30.42 in
Visibility 2.0 miles
Clouds Overcast 400 ft
Windchill 37 °F
Dew Point 36 °F
Humidity 97%
Rainfall in
Snow Depth Not available.
UV 2 out of 12
Pollen 8.40 out of 12
Air Quality Not available.
Flu Activity Not available.
METAR KACJ 061515Z AUTO 02008KT 2SM BR OVC004 02/02 A3042 RMK AO2

More Conditions Fewer Conditions

Pressure 30.42 in
Visibility 2.0 miles
Clouds Overcast 400 ft
Windchill 37 °F
Dew Point 36 °F
Humidity 97%
Rainfall in
Snow Depth Not available.
UV 2 out of 12
Pollen 8.40 out of 12
Air Quality Not available.
Flu Activity Not available.
METAR KACJ 061515Z AUTO 02008KT 2SM BR OVC004 02/02 A3042 RMK AO2

More Conditions Fewer Conditions

10-Day Weather Forecast

Almanac

Astronomy

Mar. 06, 2015 Rise Set
Actual Time
Civil Twilight
Nautical Twilight
Astronomical Twilight
Moon
Length of Visible Light
Length of Day
Tomorrow will be .
, % of the Moon is Illuminated

Today's Extremes

State Highs State Lows

Community

WunderPhotos

Upload Photos

1,803,299 photos uploaded!

WunderBlogs® & News

Nearby

Air Quality

  Air Quality AQ Index Pollutant
Not available.

Snow Depth

Station Depth Elevation

Earthquake Activity

City Distance Mag. Time & Date
Minimum magnitude displayed is 2.5.

Coastal Water Temperatures

Place Temperature

Nearby Weather Stations